Time;durP1;ratioP1;P1;durP2;ratioP2;P2;SDS_P1;SDS_P2;PMS_P1;PMS_P2;Temp;Humidity;BMP_temperature;BMP_pressure;BME280_temperature;BME280_humidity;BME280_pressure;Samples;Min_cycle;Max_cycle;Signal;HPM_P1;HPM_P2
2020/12/09 00:00:12;;;;;;;8.70;2.88;;;23.90;48.60;;;;;;5094055;28;20019;-56
2020/12/09 00:02:43;;;;;;;14.38;2.25;;;23.80;50.70;;;;;;5112337;28;20182;-56
2020/12/09 00:05:13;;;;;;;8.45;3.55;;;24.00;47.30;;;;;;5111843;28;20048;-56
2020/12/09 00:07:40;;;;;;;12.10;4.18;;;24.00;47.60;;;;;;5112443;28;20546;-58
2020/12/09 00:10:08;;;;;;;8.90;3.53;;;24.20;52.90;;;;;;5111907;28;20028;-57
2020/12/09 00:12:36;;;;;;;9.05;2.80;;;23.90;51.80;;;;;;5112035;28;20019;-54
2020/12/09 00:15:07;;;;;;;11.52;3.85;;;24.20;53.10;;;;;;5093941;28;20020;-57
2020/12/09 00:17:34;;;;;;;7.65;3.38;;;24.40;53.60;;;;;;5112194;28;20066;-58
2020/12/09 00:20:03;;;;;;;10.85;2.63;;;24.50;47.10;;;;;;5111586;28;20075;-59
2020/12/09 00:22:30;;;;;;;11.60;3.58;;;24.40;46.00;;;;;;5111796;28;20032;-55
2020/12/09 00:24:57;;;;;;;11.02;2.53;;;24.50;52.30;;;;;;5111792;28;20023;-56
2020/12/09 00:27:25;;;;;;;8.65;2.15;;;24.60;49.80;;;;;;5112220;28;20023;-58
2020/12/09 00:29:52;;;;;;;13.90;3.30;;;24.70;44.80;;;;;;5112044;28;20043;-56
2020/12/09 00:32:20;;;;;;;14.90;3.53;;;24.70;51.80;;;;;;5111836;28;20110;-56
2020/12/09 00:34:47;;;;;;;7.07;2.63;;;24.90;50.70;;;;;;5111593;28;20032;-56
2020/12/09 00:37:14;;;;;;;10.00;1.83;;;24.90;46.50;;;;;;5111822;28;20397;-58
2020/12/09 00:39:42;;;;;;;8.52;2.78;;;24.80;45.30;;;;;;5111520;28;20074;-53
2020/12/09 00:42:09;;;;;;;9.88;2.28;;;25.00;50.30;;;;;;5093676;28;20031;-56
2020/12/09 00:44:36;;;;;;;9.10;2.08;;;24.90;45.10;;;;;;5111873;28;20032;-56
2020/12/09 00:47:04;;;;;;;9.43;2.80;;;24.80;45.50;;;;;;5111724;28;20032;-56
2020/12/09 00:49:31;;;;;;;12.55;3.08;;;25.10;50.20;;;;;;5111145;28;20114;-56
2020/12/09 00:51:59;;;;;;;7.60;2.00;;;25.10;51.30;;;;;;5111941;28;20023;-55
2020/12/09 00:54:27;;;;;;;8.10;2.25;;;24.50;45.90;;;;;;5112022;28;20023;-54
2020/12/09 00:56:54;;;;;;;9.93;1.92;;;24.60;50.00;;;;;;5097345;28;20028;-58
2020/12/09 00:59:21;;;;;;;7.53;2.30;;;24.80;49.70;;;;;;5115470;28;20030;-56
2020/12/09 01:01:49;;;;;;;15.63;2.63;;;24.70;48.10;;;;;;5115898;28;20024;-57
2020/12/09 01:04:16;;;;;;;17.42;2.25;;;24.70;51.70;;;;;;5099929;27;20045;-59
2020/12/09 01:06:43;;;;;;;14.35;2.92;;;24.90;47.50;;;;;;5113712;27;20048;-53
2020/12/09 01:09:11;;;;;;;13.43;2.50;;;25.20;47.40;;;;;;5112511;27;20103;-50
2020/12/09 01:11:38;;;;;;;14.73;2.92;;;25.00;47.00;;;;;;5112647;28;20034;-52
2020/12/09 01:14:05;;;;;;;12.20;3.20;;;24.80;48.70;;;;;;5107365;28;20313;-50
2020/12/09 01:16:33;;;;;;;10.73;2.45;;;25.10;49.80;;;;;;5112606;28;20034;-51
2020/12/09 01:19:00;;;;;;;11.45;2.13;;;25.20;51.80;;;;;;5112454;28;20051;-55
2020/12/09 01:21:31;;;;;;;9.77;2.05;;;24.90;49.80;;;;;;5111678;28;20058;-56
2020/12/09 01:23:59;;;;;;;10.95;2.20;;;25.00;46.90;;;;;;5108108;28;20035;-57
2020/12/09 01:26:27;;;;;;;22.85;3.42;;;25.10;47.50;;;;;;5112969;28;20035;-51
2020/12/09 01:28:54;;;;;;;13.85;3.38;;;25.30;47.40;;;;;;5112421;28;20109;-55
2020/12/09 01:31:23;;;;;;;7.05;1.98;;;25.20;49.00;;;;;;5111696;28;20541;-60
2020/12/09 01:33:50;;;;;;;41.15;6.45;;;24.90;47.90;;;;;;5106361;28;20073;-53
2020/12/09 01:36:22;;;;;;;16.65;3.60;;;24.70;48.90;;;;;;5112372;28;20028;-56
2020/12/09 01:38:50;;;;;;;16.00;4.63;;;25.10;47.30;;;;;;5109137;28;21011;-55
2020/12/09 01:41:25;;;;;;;14.70;2.30;;;25.40;47.00;;;;;;5112757;28;20023;-57
2020/12/09 01:43:54;;;;;;;17.33;2.70;;;25.20;48.10;;;;;;5106170;28;20024;-49
2020/12/09 01:46:30;;;;;;;10.02;4.03;;;25.50;47.20;;;;;;5112372;28;20040;-57
2020/12/09 01:48:59;;;;;;;19.35;4.18;;;25.30;47.00;;;;;;5112061;28;20020;-57
2020/12/09 01:51:28;;;;;;;12.98;4.47;;;25.10;50.30;;;;;;5111574;28;20503;-59
2020/12/09 01:54:00;;;;;;;12.15;5.20;;;25.30;49.50;;;;;;5107206;28;20122;-54
2020/12/09 01:56:28;;;;;;;8.52;2.88;;;25.40;48.70;;;;;;5112376;28;20084;-56
2020/12/09 01:58:56;;;;;;;9.70;4.60;;;25.20;48.00;;;;;;5111656;28;20027;-52
2020/12/09 02:01:24;;;;;;;9.43;1.95;;;25.30;50.00;;;;;;5111936;28;20028;-56
2020/12/09 02:03:51;;;;;;;7.25;2.13;;;24.70;49.60;;;;;;5107211;28;20072;-58
2020/12/09 02:06:20;;;;;;;12.80;3.92;;;24.60;49.60;;;;;;5112332;28;20039;-59
2020/12/09 02:08:48;;;;;;;10.50;1.75;;;25.10;49.00;;;;;;5111180;28;20464;-53
2020/12/09 02:11:15;;;;;;;8.85;5.60;;;24.00;51.40;;;;;;5092939;28;20350;-55
2020/12/09 02:13:47;;;;;;;15.10;4.10;;;23.80;52.30;;;;;;5106373;28;20182;-56
2020/12/09 02:16:17;;;;;;;13.20;2.28;;;24.30;51.40;;;;;;5110655;28;20020;-55
2020/12/09 02:18:46;;;;;;;11.60;3.42;;;24.50;51.30;;;;;;5107509;28;20130;-61
2020/12/09 02:21:13;;;;;;;10.50;2.15;;;24.50;52.20;;;;;;5107748;28;20439;-53
2020/12/09 02:23:40;;;;;;;10.73;4.00;;;24.50;50.30;;;;;;5104333;28;20330;-54
2020/12/09 02:26:08;;;;;;;12.35;4.45;;;24.70;51.70;;;;;;5111443;28;20459;-58
2020/12/09 02:28:35;;;;;;;17.20;4.60;;;24.90;50.70;;;;;;5093358;28;20137;-56
2020/12/09 02:31:02;;;;;;;13.43;4.40;;;25.10;51.00;;;;;;5111830;28;20488;-54
2020/12/09 02:33:30;;;;;;;12.88;3.92;;;25.20;50.70;;;;;;5105107;28;20039;-55
2020/12/09 02:35:58;;;;;;;15.25;4.13;;;25.20;50.60;;;;;;5110812;28;20358;-57
2020/12/09 02:38:25;;;;;;;10.20;3.58;;;25.30;50.60;;;;;;5111564;28;20024;-61
2020/12/09 02:40:52;;;;;;;10.05;3.85;;;25.40;50.80;;;;;;5110984;28;20103;-59
2020/12/09 02:43:20;;;;;;;10.00;3.47;;;25.50;50.60;;;;;;5106124;28;20227;-60
2020/12/09 02:45:47;;;;;;;12.13;3.60;;;25.50;50.60;;;;;;5085114;28;20043;-55
2020/12/09 02:48:14;;;;;;;9.38;3.70;;;25.60;50.30;;;;;;5111313;28;20027;-56
2020/12/09 02:50:42;;;;;;;8.52;3.25;;;25.70;50.30;;;;;;5112055;28;20035;-60
2020/12/09 02:53:09;;;;;;;8.07;2.90;;;25.70;50.10;;;;;;5110966;28;20693;-64
2020/12/09 02:55:37;;;;;;;12.35;3.22;;;25.80;50.10;;;;;;5110404;28;20478;-56
2020/12/09 02:58:04;;;;;;;17.38;3.03;;;25.80;50.00;;;;;;5112825;27;20476;-59
2020/12/09 03:00:31;;;;;;;10.70;3.20;;;25.80;49.90;;;;;;5111854;28;20096;-62
2020/12/09 03:02:59;;;;;;;11.30;3.30;;;25.80;49.40;;;;;;5110525;28;20035;-60
2020/12/09 03:05:26;;;;;;;9.23;3.13;;;25.80;49.90;;;;;;5111337;28;20024;-64
2020/12/09 03:07:54;;;;;;;10.05;3.20;;;25.80;49.90;;;;;;5092722;28;20036;-58
2020/12/09 03:10:21;;;;;;;10.15;2.42;;;25.80;49.70;;;;;;5112664;28;20031;-58
2020/12/09 03:12:49;;;;;;;9.15;2.55;;;25.70;49.10;;;;;;5112617;28;20081;-56
2020/12/09 03:15:16;;;;;;;10.98;3.22;;;25.70;49.10;;;;;;5109268;28;20469;-51
2020/12/09 03:17:43;;;;;;;13.18;2.50;;;25.70;49.50;;;;;;5109740;28;20180;-56
2020/12/09 03:20:11;;;;;;;11.10;2.53;;;25.70;49.50;;;;;;5112632;28;20032;-58
2020/12/09 03:22:38;;;;;;;7.00;2.08;;;25.60;49.60;;;;;;5111276;28;20053;-58
2020/12/09 03:25:05;;;;;;;9.63;2.67;;;25.60;49.70;;;;;;5109705;28;20447;-57
2020/12/09 03:27:33;;;;;;;8.80;2.25;;;25.70;49.80;;;;;;5111484;28;20084;-49
2020/12/09 03:30:00;;;;;;;8.10;2.90;;;25.70;49.70;;;;;;5111110;28;20043;-57
2020/12/09 03:32:27;;;;;;;12.93;2.60;;;25.70;49.90;;;;;;5112138;28;20023;-57
2020/12/09 03:34:55;;;;;;;10.68;3.10;;;25.70;49.80;;;;;;5113077;28;20011;-59
2020/12/09 03:37:22;;;;;;;6.60;2.08;;;25.80;49.90;;;;;;5112776;28;20354;-52
2020/12/09 03:39:50;;;;;;;10.93;2.88;;;25.80;49.80;;;;;;5112395;28;20024;-54
2020/12/09 03:42:17;;;;;;;7.85;2.85;;;25.80;49.90;;;;;;5112540;28;20047;-58
2020/12/09 03:44:44;;;;;;;8.77;3.05;;;25.80;49.90;;;;;;5112514;28;20075;-54
2020/12/09 03:47:12;;;;;;;8.85;2.63;;;25.80;50.80;;;;;;5112470;28;20223;-57
2020/12/09 03:49:39;;;;;;;11.82;2.50;;;25.80;50.90;;;;;;5112380;28;20099;-57
2020/12/09 03:52:06;;;;;;;10.48;2.65;;;25.80;50.10;;;;;;5111825;28;20019;-59
2020/12/09 03:54:34;;;;;;;7.85;2.50;;;25.80;50.30;;;;;;5111894;28;20032;-60
2020/12/09 03:57:01;;;;;;;20.40;3.10;;;25.80;50.30;;;;;;5111991;28;20548;-57
2020/12/09 03:59:29;;;;;;;10.07;2.17;;;25.90;50.30;;;;;;5112407;28;20031;-60
2020/12/09 04:01:56;;;;;;;7.00;2.28;;;25.90;50.40;;;;;;5112199;28;20028;-60
2020/12/09 04:04:23;;;;;;;8.98;2.60;;;25.90;50.30;;;;;;5112874;28;20461;-59
2020/12/09 04:06:51;;;;;;;8.10;2.15;;;25.90;50.20;;;;;;5112386;28;20049;-57
2020/12/09 04:09:18;;;;;;;5.95;2.28;;;25.90;50.20;;;;;;5112592;28;20038;-56
2020/12/09 04:11:45;;;;;;;11.13;2.22;;;25.90;50.30;;;;;;5112167;28;20154;-60
2020/12/09 04:14:13;;;;;;;6.45;2.45;;;25.90;50.40;;;;;;5112841;28;20495;-50
2020/12/09 04:16:40;;;;;;;7.38;2.08;;;25.90;50.50;;;;;;5112464;28;20055;-50
2020/12/09 04:19:07;;;;;;;8.18;2.15;;;25.80;50.40;;;;;;5111952;28;20078;-54
2020/12/09 04:21:35;;;;;;;9.30;2.97;;;25.80;50.50;;;;;;5112105;28;20400;-58
2020/12/09 04:24:02;;;;;;;9.07;2.42;;;25.80;50.90;;;;;;5112342;28;20020;-63
2020/12/09 04:26:29;;;;;;;16.02;1.67;;;25.80;51.20;;;;;;5103801;27;20143;-53
2020/12/09 04:28:57;;;;;;;9.93;2.60;;;25.80;51.10;;;;;;5107501;28;20019;-60
2020/12/09 04:31:24;;;;;;;10.70;1.90;;;25.80;51.90;;;;;;5086099;28;20110;-61
2020/12/09 04:33:56;;;;;;;11.57;2.45;;;25.80;51.20;;;;;;5090730;28;20046;-58
2020/12/09 04:36:28;;;;;;;8.52;2.53;;;25.90;51.10;;;;;;5108507;28;20028;-61
2020/12/09 04:38:57;;;;;;;5.78;2.20;;;25.90;51.00;;;;;;5108687;28;20115;-55
2020/12/09 04:41:24;;;;;;;10.85;2.35;;;25.90;51.10;;;;;;5108350;28;20032;-58
2020/12/09 04:43:52;;;;;;;7.93;2.30;;;25.90;51.00;;;;;;5105092;28;20577;-58
2020/12/09 04:46:19;;;;;;;8.30;2.63;;;25.90;51.00;;;;;;5107458;28;20027;-63
2020/12/09 04:49:03;;;;;;;8.68;2.13;;;25.90;51.10;;;;;;5090739;28;20035;-58
2020/12/09 04:51:42;;;;;;;6.90;2.22;;;26.00;51.10;;;;;;5106033;28;20106;-55
2020/12/09 04:54:18;;;;;;;5.25;1.70;;;25.90;51.00;;;;;;5104251;28;20501;-58
2020/12/09 04:56:55;;;;;;;11.15;2.50;;;25.90;51.30;;;;;;5107803;28;20522;-52
2020/12/09 04:59:26;;;;;;;13.02;2.35;;;25.90;51.40;;;;;;5109137;28;20487;-58
2020/12/09 05:02:07;;;;;;;5.30;2.25;;;25.80;51.40;;;;;;5108955;28;20049;-60
2020/12/09 05:04:36;;;;;;;8.60;2.33;;;25.80;51.70;;;;;;5105138;28;20042;-62
2020/12/09 05:07:10;;;;;;;7.30;2.47;;;25.80;51.50;;;;;;5108156;28;20084;-59
2020/12/09 05:09:46;;;;;;;10.30;2.08;;;25.80;51.70;;;;;;5107969;28;20075;-60
2020/12/09 05:12:18;;;;;;;5.25;1.58;;;25.80;51.90;;;;;;5107236;28;20547;-59
2020/12/09 05:14:49;;;;;;;10.38;2.08;;;25.70;51.90;;;;;;5104298;28;20487;-54
2020/12/09 05:17:21;;;;;;;6.00;2.05;;;25.80;51.80;;;;;;5108326;28;20075;-58
2020/12/09 05:19:49;;;;;;;;;;;25.80;52.00;;;;;;5109071;28;20035;-57
2020/12/09 05:22:20;;;;;;;8.55;2.38;;;25.70;52.10;;;;;;5108870;28;20392;-57
2020/12/09 05:24:47;;;;;;;7.80;2.40;;;25.80;52.10;;;;;;5104452;28;20095;-55
2020/12/09 05:27:15;;;;;;;5.78;1.70;;;25.80;52.10;;;;;;5108301;28;20028;-56
2020/12/09 05:29:50;;;;;;;10.05;2.13;;;25.80;52.10;;;;;;5107276;28;20376;-56
2020/12/09 05:32:18;;;;;;;5.60;1.83;;;25.80;52.10;;;;;;5108548;28;20534;-58
2020/12/09 05:34:45;;;;;;;10.82;2.20;;;25.80;52.30;;;;;;5104805;28;20027;-55
2020/12/09 05:37:13;;;;;;;6.70;2.03;;;25.80;52.50;;;;;;5108098;28;20027;-59
2020/12/09 05:39:55;;;;;;;10.20;2.35;;;25.70;52.20;;;;;;5106742;28;20481;-58
2020/12/09 05:42:24;;;;;;;47.42;37.83;;;25.80;52.40;;;;;;5094549;28;20053;-52
2020/12/09 05:44:51;;;;;;;19.92;11.90;;;25.80;52.40;;;;;;5094179;28;20161;-57
2020/12/09 05:47:21;;;;;;;15.93;9.27;;;25.80;52.00;;;;;;5093582;28;20158;-56
2020/12/09 05:49:49;;;;;;;14.93;8.65;;;25.70;52.10;;;;;;5103145;28;20070;-54
2020/12/09 05:52:21;;;;;;;25.85;13.43;;;25.60;52.10;;;;;;5114837;28;20373;-58
2020/12/09 05:54:53;;;;;;;22.42;9.02;;;25.50;52.20;;;;;;5114641;28;20489;-48
2020/12/09 05:57:25;;;;;;;19.98;14.55;;;25.50;52.50;;;;;;5113873;28;20126;-51
2020/12/09 05:59:53;;;;;;;14.80;9.90;;;25.50;52.50;;;;;;5112637;28;20382;-59
2020/12/09 06:02:22;;;;;;;20.55;10.93;;;25.50;52.50;;;;;;5113847;28;20525;-53
2020/12/09 06:04:56;;;;;;;17.88;7.38;;;25.60;52.70;;;;;;5113692;28;20608;-57
2020/12/09 06:07:33;;;;;;;28.42;14.57;;;25.40;52.40;;;;;;5113114;28;20028;-56
2020/12/09 06:10:17;;;;;;;34.53;15.88;;;25.40;53.00;;;;;;5113457;28;20035;-54
2020/12/09 06:12:53;;;;;;;15.27;8.48;;;25.30;53.50;;;;;;5114440;28;20474;-60
2020/12/09 06:15:23;;;;;;;9.70;4.45;;;25.40;54.40;;;;;;5113287;28;20024;-56
2020/12/09 06:18:03;;;;;;;15.60;8.05;;;25.20;53.20;;;;;;5114492;28;20052;-57
2020/12/09 06:20:33;;;;;;;19.45;9.55;;;25.10;53.90;;;;;;5114928;28;20114;-55
2020/12/09 06:23:09;;;;;;;13.18;5.03;;;24.80;54.00;;;;;;5113943;28;20019;-57
2020/12/09 06:25:41;;;;;;;13.50;6.80;;;24.60;54.70;;;;;;5114092;28;20055;-56
2020/12/09 06:28:13;;;;;;;12.70;5.38;;;24.50;55.10;;;;;;5114592;28;20027;-59
2020/12/09 06:30:40;;;;;;;13.70;5.05;;;24.70;55.80;;;;;;5114580;28;20024;-59
2020/12/09 06:33:08;;;;;;;10.25;5.30;;;24.70;55.20;;;;;;5114264;28;20137;-61
2020/12/09 06:35:36;;;;;;;10.65;4.75;;;24.80;55.90;;;;;;5114209;28;20057;-55
2020/12/09 06:38:09;;;;;;;19.10;4.00;;;24.80;56.40;;;;;;5114057;28;20073;-57
2020/12/09 06:40:38;;;;;;;19.73;3.85;;;24.90;54.80;;;;;;5096086;28;20035;-57
2020/12/09 06:43:12;;;;;;;15.70;6.65;;;24.60;54.90;;;;;;5114011;28;20103;-57
2020/12/09 06:45:43;;;;;;;17.70;5.20;;;24.50;55.60;;;;;;5114009;28;20157;-57
2020/12/09 06:48:20;;;;;;;12.80;4.45;;;24.50;54.90;;;;;;5113927;28;20024;-55
2020/12/09 06:50:48;;;;;;;24.17;3.95;;;24.50;55.80;;;;;;5113396;28;20045;-50
2020/12/09 06:53:25;;;;;;;11.32;2.80;;;24.70;56.40;;;;;;5094729;28;20134;-54
2020/12/09 06:56:12;;;;;;;14.45;3.17;;;24.50;54.90;;;;;;5112852;28;20362;-53
2020/12/09 06:58:39;;;;;;;15.95;3.63;;;24.60;56.00;;;;;;5113030;28;20454;-62
2020/12/09 07:01:09;;;;;;;14.15;2.80;;;24.70;55.80;;;;;;5113947;28;20034;-61
2020/12/09 07:03:37;;;;;;;20.50;3.45;;;24.70;56.00;;;;;;5113063;28;20507;-54
2020/12/09 07:06:20;;;;;;;11.32;2.47;;;24.60;55.80;;;;;;5113895;28;20666;-56
2020/12/09 07:08:49;;;;;;;24.35;3.05;;;24.50;55.70;;;;;;5113447;28;20024;-56
2020/12/09 07:11:17;;;;;;;15.50;2.30;;;24.50;55.90;;;;;;5113934;28;20046;-58
2020/12/09 07:13:44;;;;;;;18.50;2.47;;;24.40;55.10;;;;;;5107853;27;20027;-54
2020/12/09 07:16:13;;;;;;;14.98;2.63;;;24.30;55.20;;;;;;5089299;28;20059;-61
2020/12/09 07:18:41;;;;;;;7.93;2.17;;;24.10;56.20;;;;;;5110015;28;20051;-51
2020/12/09 07:21:10;;;;;;;8.45;2.05;;;24.10;56.40;;;;;;5111766;27;20020;-49
2020/12/09 07:23:38;;;;;;;10.80;2.28;;;24.10;56.40;;;;;;5107752;28;20028;-54
2020/12/09 07:26:06;;;;;;;11.38;2.42;;;24.20;56.40;;;;;;5088985;28;20039;-53
2020/12/09 07:28:33;;;;;;;11.77;3.28;;;24.10;57.10;;;;;;5109174;28;20020;-56
2020/12/09 07:31:10;;;;;;;14.88;2.70;;;24.00;57.70;;;;;;5108657;28;20030;-58
2020/12/09 07:33:38;;;;;;;12.52;3.60;;;24.10;57.20;;;;;;5084977;28;20016;-58
2020/12/09 07:36:08;;;;;;;11.63;2.63;;;24.20;57.50;;;;;;5107417;28;20153;-53
2020/12/09 07:38:35;;;;;;;10.50;2.45;;;24.20;57.40;;;;;;5108653;28;20069;-59
2020/12/09 07:41:04;;;;;;;13.90;2.30;;;24.20;57.40;;;;;;5091229;28;20031;-60
2020/12/09 07:43:31;;;;;;;12.32;2.65;;;24.20;57.40;;;;;;5112760;28;20024;-61
2020/12/09 07:46:03;;;;;;;15.25;3.90;;;24.10;58.30;;;;;;5111494;28;20059;-58
2020/12/09 07:48:33;;;;;;;10.02;3.53;;;24.00;58.50;;;;;;5112065;28;20447;-60
2020/12/09 07:51:01;;;;;;;17.15;2.58;;;23.80;60.30;;;;;;5094221;28;20449;-57
2020/12/09 07:53:28;;;;;;;9.70;2.95;;;23.70;60.90;;;;;;5111364;28;20115;-58
2020/12/09 07:55:59;;;;;;;12.27;2.90;;;23.90;61.00;;;;;;5112357;28;20401;-58
2020/12/09 07:58:26;;;;;;;13.50;3.00;;;24.00;61.70;;;;;;5112347;28;20031;-58
2020/12/09 08:00:55;;;;;;;12.30;3.30;;;24.20;63.40;;;;;;5112614;28;20015;-58
2020/12/09 08:03:25;;;;;;;16.75;3.22;;;24.30;62.70;;;;;;5112759;28;20473;-58
2020/12/09 08:05:55;;;;;;;14.57;3.83;;;24.40;61.80;;;;;;5112256;28;20123;-56
2020/12/09 08:08:27;;;;;;;19.13;3.38;;;24.50;62.30;;;;;;5112910;28;20084;-59
2020/12/09 08:11:06;;;;;;;12.40;2.97;;;24.50;60.90;;;;;;5107626;28;20438;-62
2020/12/09 08:13:35;;;;;;;15.63;3.40;;;24.60;61.70;;;;;;5112642;28;20053;-55
2020/12/09 08:16:07;;;;;;;14.13;2.65;;;24.50;60.20;;;;;;5112332;28;20031;-52
2020/12/09 08:18:36;;;;;;;7.97;2.65;;;24.20;59.90;;;;;;5112688;28;20040;-57
2020/12/09 08:21:04;;;;;;;12.27;2.90;;;24.30;61.90;;;;;;5112848;28;20027;-57
2020/12/09 08:23:48;;;;;;;17.13;3.30;;;24.40;61.90;;;;;;5112832;28;20093;-56
2020/12/09 08:27:26;;;;;;;12.43;2.42;;;24.50;60.60;;;;;;5112828;28;20034;-55
2020/12/09 08:29:19;;;;;;;10.35;2.75;;;24.60;61.40;;;;;;5092913;28;20032;-60
2020/12/09 08:31:46;;;;;;;8.80;2.72;;;24.60;60.60;;;;;;5112861;28;20073;-54
2020/12/09 08:34:14;;;;;;;10.88;2.95;;;24.50;59.60;;;;;;5112410;28;20601;-55
2020/12/09 08:36:42;;;;;;;10.55;2.85;;;24.40;62.10;;;;;;5111979;28;20378;-55
2020/12/09 08:39:09;;;;;;;10.40;2.70;;;24.40;61.80;;;;;;5111765;28;20024;-56
2020/12/09 08:41:37;;;;;;;10.90;3.22;;;24.40;62.70;;;;;;5112703;28;20020;-56
2020/12/09 08:44:07;;;;;;;19.98;2.92;;;24.50;63.40;;;;;;5112433;28;20157;-56
2020/12/09 08:46:35;;;;;;;18.90;3.53;;;24.50;63.50;;;;;;5112362;28;20122;-54
2020/12/09 08:49:11;;;;;;;11.70;3.47;;;24.50;64.20;;;;;;5112199;28;20154;-57
2020/12/09 08:51:38;;;;;;;19.42;3.58;;;24.50;64.70;;;;;;5110945;28;20550;-57
2020/12/09 08:54:07;;;;;;;22.83;4.05;;;24.50;66.40;;;;;;5110504;28;20092;-58
2020/12/09 08:56:35;;;;;;;11.27;2.83;;;24.70;66.00;;;;;;5084875;28;20027;-60
2020/12/09 08:59:03;;;;;;;19.05;3.22;;;24.70;64.30;;;;;;5110351;28;20076;-59
2020/12/09 09:01:36;;;;;;;26.05;4.28;;;24.60;62.80;;;;;;5106717;28;20030;-56
2020/12/09 09:04:06;;;;;;;23.65;3.75;;;24.70;64.70;;;;;;5106576;28;20028;-54
2020/12/09 09:06:34;;;;;;;14.90;3.65;;;24.50;63.70;;;;;;5107346;28;20032;-59
2020/12/09 09:09:02;;;;;;;18.92;4.57;;;24.40;63.80;;;;;;5109036;28;20090;-51
2020/12/09 09:11:30;;;;;;;22.90;4.15;;;24.30;64.40;;;;;;5105298;28;20396;-54
2020/12/09 09:13:58;;;;;;;14.65;3.22;;;24.30;66.80;;;;;;5108519;28;20030;-56
2020/12/09 09:16:25;;;;;;;16.27;3.75;;;24.10;64.70;;;;;;5111301;28;20020;-54
2020/12/09 09:18:52;;;;;;;18.17;3.20;;;23.90;63.90;;;;;;5112338;28;20446;-52
2020/12/09 09:21:20;;;;;;;14.57;3.85;;;24.00;66.70;;;;;;5109904;28;20051;-55
2020/12/09 09:23:47;;;;;;;16.33;3.97;;;24.10;65.00;;;;;;5113116;28;20031;-51
2020/12/09 09:26:15;;;;;;;19.33;3.67;;;24.10;68.00;;;;;;5112369;28;20040;-57
2020/12/09 09:28:43;;;;;;;15.18;3.25;;;24.10;67.20;;;;;;5112310;28;20074;-50
2020/12/09 09:31:10;;;;;;;18.00;3.60;;;23.80;64.70;;;;;;5109235;28;20035;-54
2020/12/09 09:33:38;;;;;;;14.32;3.63;;;23.90;66.20;;;;;;5111424;28;20031;-51
2020/12/09 09:36:05;;;;;;;12.82;4.32;;;23.90;69.00;;;;;;5111902;28;20024;-55
2020/12/09 09:38:33;;;;;;;15.23;3.83;;;24.00;68.40;;;;;;5113717;27;20020;-55
2020/12/09 09:41:00;;;;;;;20.90;3.72;;;23.80;63.20;;;;;;5108407;28;20049;-59
2020/12/09 09:43:27;;;;;;;19.05;3.35;;;23.70;66.70;;;;;;5111372;28;20076;-49
2020/12/09 09:45:55;;;;;;;9.73;2.97;;;23.70;64.70;;;;;;5112178;28;20043;-51
2020/12/09 09:48:22;;;;;;;13.85;2.83;;;23.60;64.70;;;;;;5111767;28;20038;-56
2020/12/09 09:51:16;;;;;;;13.15;2.85;;;23.50;63.50;;;;;;5107728;28;20028;-57
2020/12/09 09:53:44;;;;;;;7.28;2.53;;;23.60;66.00;;;;;;5111300;28;20055;-55
2020/12/09 09:56:11;;;;;;;6.47;2.72;;;23.70;65.60;;;;;;5111802;28;20032;-59
2020/12/09 09:58:38;;;;;;;5.90;2.28;;;23.70;65.00;;;;;;5110159;28;20059;-53
2020/12/09 10:01:07;;;;;;;10.10;3.03;;;23.70;65.00;;;;;;5108861;28;20062;-53
2020/12/09 10:03:34;;;;;;;14.68;2.95;;;23.80;64.80;;;;;;5110899;28;20023;-56
2020/12/09 10:06:03;;;;;;;14.32;3.50;;;23.90;66.00;;;;;;5111183;28;20104;-60
2020/12/09 10:08:30;;;;;;;16.15;3.90;;;23.90;66.10;;;;;;5111375;28;20408;-50
2020/12/09 10:11:03;;;;;;;13.68;3.25;;;23.90;65.20;;;;;;5108280;28;20420;-58
2020/12/09 10:13:30;;;;;;;12.40;3.30;;;23.90;64.70;;;;;;5111405;28;20035;-55
2020/12/09 10:15:58;;;;;;;18.58;3.10;;;23.90;64.90;;;;;;5111182;28;20051;-55
2020/12/09 10:18:25;;;;;;;13.65;3.60;;;23.90;64.70;;;;;;5110927;28;20039;-57
2020/12/09 10:20:53;;;;;;;15.57;3.33;;;24.00;64.40;;;;;;5107971;28;20027;-57
2020/12/09 10:23:21;;;;;;;17.23;3.72;;;24.00;64.20;;;;;;5110913;28;20026;-56
2020/12/09 10:25:48;;;;;;;12.77;3.83;;;24.00;64.10;;;;;;5108111;28;20172;-62
2020/12/09 10:28:16;;;;;;;16.38;3.50;;;24.00;64.00;;;;;;5109665;28;20028;-59
2020/12/09 10:30:46;;;;;;;13.00;4.38;;;24.00;63.80;;;;;;5107630;28;20034;-57
2020/12/09 10:33:15;;;;;;;13.60;3.60;;;24.00;63.80;;;;;;5111556;28;20039;-54
2020/12/09 10:35:46;;;;;;;19.23;4.18;;;24.00;63.70;;;;;;5110821;28;20032;-52
2020/12/09 10:38:13;;;;;;;15.15;4.68;;;24.10;63.60;;;;;;5110394;28;20165;-52
2020/12/09 10:40:41;;;;;;;14.52;4.47;;;24.00;64.00;;;;;;5107415;28;20846;-59
2020/12/09 10:43:09;;;;;;;18.13;4.85;;;24.10;63.40;;;;;;5110942;28;20055;-61
2020/12/09 10:45:36;;;;;;;11.73;3.47;;;24.10;63.40;;;;;;5110780;28;20051;-55
2020/12/09 10:48:04;;;;;;;14.55;4.28;;;24.10;63.40;;;;;;5110280;28;20031;-56
2020/12/09 10:50:50;;;;;;;19.20;4.38;;;24.00;63.50;;;;;;5106786;28;20152;-57
2020/12/09 10:53:19;;;;;;;13.32;3.97;;;24.00;63.50;;;;;;5108592;28;20020;-57
2020/12/09 10:55:46;;;;;;;16.10;4.03;;;24.00;64.00;;;;;;5108725;28;20023;-53
2020/12/09 10:58:13;;;;;;;16.15;4.18;;;24.00;63.40;;;;;;5110218;28;20030;-62
2020/12/09 11:00:41;;;;;;;15.20;3.50;;;24.00;63.30;;;;;;5106314;28;20026;-60
2020/12/09 11:03:08;;;;;;;13.90;4.05;;;23.90;63.30;;;;;;5108696;28;20051;-61
2020/12/09 11:05:36;;;;;;;9.88;3.58;;;23.90;63.50;;;;;;5108410;28;20126;-62
2020/12/09 11:08:03;;;;;;;14.98;4.72;;;24.00;63.50;;;;;;5110995;27;20031;-57
2020/12/09 11:10:31;;;;;;;10.48;4.03;;;23.90;63.30;;;;;;5109406;28;20036;-56
2020/12/09 11:12:58;;;;;;;15.88;3.72;;;24.00;63.30;;;;;;5087187;28;20030;-54
2020/12/09 11:15:25;;;;;;;13.13;3.58;;;23.90;63.40;;;;;;5111478;28;20030;-57
2020/12/09 11:17:53;;;;;;;13.88;4.45;;;23.90;63.30;;;;;;5110462;28;20630;-62
2020/12/09 11:20:20;;;;;;;36.55;4.88;;;23.90;63.20;;;;;;5110850;28;20036;-53
2020/12/09 11:22:48;;;;;;;11.43;4.05;;;23.90;63.20;;;;;;5107131;28;20141;-51
2020/12/09 11:25:15;;;;;;;12.52;3.88;;;23.90;63.20;;;;;;5110523;28;20085;-55
2020/12/09 11:27:42;;;;;;;11.10;3.55;;;23.90;63.00;;;;;;5109469;28;20101;-55
2020/12/09 11:30:10;;;;;;;10.68;3.42;;;24.00;63.10;;;;;;5110889;28;20074;-59
2020/12/09 11:32:37;;;;;;;12.55;3.22;;;23.90;63.00;;;;;;5106901;28;20027;-57
2020/12/09 11:35:06;;;;;;;14.25;4.05;;;23.90;63.00;;;;;;5109616;28;20023;-57
2020/12/09 11:37:37;;;;;;;12.27;2.90;;;23.90;63.00;;;;;;5110206;28;20043;-55
2020/12/09 11:40:06;;;;;;;10.90;2.95;;;23.90;63.00;;;;;;5109638;28;20028;-50
2020/12/09 11:42:40;;;;;;;8.90;3.80;;;23.90;63.00;;;;;;5105964;28;20066;-52
2020/12/09 11:45:08;;;;;;;7.68;3.17;;;23.90;63.00;;;;;;5106949;28;20035;-60
2020/12/09 11:47:38;;;;;;;20.80;4.50;;;23.90;62.90;;;;;;5110602;28;20123;-55
2020/12/09 11:50:05;;;;;;;9.70;3.15;;;23.90;62.80;;;;;;5110131;28;20465;-52
2020/12/09 11:52:33;;;;;;;9.75;2.95;;;23.90;62.80;;;;;;5106243;28;20039;-52
2020/12/09 11:55:00;;;;;;;9.50;3.13;;;23.90;62.80;;;;;;5075146;28;20023;-51
2020/12/09 11:57:28;;;;;;;12.73;3.17;;;23.90;62.80;;;;;;5091554;28;20024;-53
2020/12/09 11:59:55;;;;;;;13.18;3.58;;;23.90;62.70;;;;;;5109446;28;20015;-50
2020/12/09 12:02:27;;;;;;;9.70;3.03;;;23.90;62.70;;;;;;5106634;28;20550;-51
2020/12/09 12:04:56;;;;;;;14.50;3.70;;;23.90;62.70;;;;;;5110028;28;20373;-53
2020/12/09 12:07:23;;;;;;;7.45;2.92;;;23.80;62.70;;;;;;5108976;28;20079;-56
2020/12/09 12:09:51;;;;;;;9.63;3.15;;;23.90;62.70;;;;;;5109286;28;20059;-55
2020/12/09 12:12:18;;;;;;;9.95;3.05;;;23.90;62.70;;;;;;5085427;28;20023;-57
2020/12/09 12:14:45;;;;;;;13.85;3.15;;;23.90;62.50;;;;;;5108491;27;20482;-61
2020/12/09 12:17:13;;;;;;;8.45;2.95;;;23.80;62.60;;;;;;5110182;27;20048;-62
2020/12/09 12:19:41;;;;;;;12.40;3.08;;;23.80;62.60;;;;;;5107400;28;20031;-60
2020/12/09 12:22:08;;;;;;;13.85;3.72;;;23.80;62.70;;;;;;5109355;28;20068;-59
2020/12/09 12:24:35;;;;;;;10.00;3.05;;;23.80;62.80;;;;;;5087079;28;20027;-59
2020/12/09 12:27:04;;;;;;;9.00;2.63;;;23.80;62.70;;;;;;5108131;28;20072;-59
2020/12/09 12:29:31;;;;;;;10.45;2.47;;;23.70;62.70;;;;;;5090995;28;20109;-57
2020/12/09 12:31:59;;;;;;;9.30;3.03;;;23.70;62.70;;;;;;5074073;28;20462;-61
2020/12/09 12:34:29;;;;;;;11.35;3.35;;;23.70;62.80;;;;;;5106019;28;20466;-59
2020/12/09 12:36:58;;;;;;;9.30;2.85;;;23.70;62.80;;;;;;5108286;28;20035;-54
2020/12/09 12:39:25;;;;;;;20.88;3.35;;;23.60;62.70;;;;;;5091242;28;20023;-56
2020/12/09 12:41:53;;;;;;;8.48;2.80;;;23.60;62.80;;;;;;5109743;28;20027;-57
2020/12/09 12:44:20;;;;;;;8.10;2.33;;;23.60;62.90;;;;;;5087160;28;20032;-54
2020/12/09 12:46:48;;;;;;;11.77;2.80;;;23.60;62.90;;;;;;5105100;28;20325;-58
2020/12/09 12:49:17;;;;;;;10.52;2.70;;;23.60;63.00;;;;;;5109275;28;20370;-57